sensor_id;sensor_type;location;lat;lon;timestamp;pressure;altitude;pressure_sealevel;temperature;humidity
75891;BME280;64571;47.512;19.054;2022-12-07T00:02:07;100425.34;;;4.51;79.37
75891;BME280;64571;47.512;19.054;2022-12-07T00:05:10;100422.88;;;4.54;79.37
75891;BME280;64571;47.512;19.054;2022-12-07T00:08:12;100412.84;;;4.43;79.70
75891;BME280;64571;47.512;19.054;2022-12-07T00:11:19;100393.66;;;4.26;79.68
75891;BME280;64571;47.512;19.054;2022-12-07T00:14:22;100409.47;;;4.36;79.96
75891;BME280;64571;47.512;19.054;2022-12-07T00:17:25;100394.38;;;4.39;79.64
75891;BME280;64571;47.512;19.054;2022-12-07T00:20:27;100399.87;;;4.39;79.66
75891;BME280;64571;47.512;19.054;2022-12-07T00:23:30;100383.31;;;4.34;79.55
75891;BME280;64571;47.512;19.054;2022-12-07T00:26:37;100399.37;;;4.42;79.57
75891;BME280;64571;47.512;19.054;2022-12-07T00:29:40;100382.25;;;4.40;79.63
75891;BME280;64571;47.512;19.054;2022-12-07T00:32:43;100385.41;;;4.26;79.73
75891;BME280;64571;47.512;19.054;2022-12-07T00:35:45;100386.00;;;4.28;79.71
75891;BME280;64571;47.512;19.054;2022-12-07T00:38:48;100378.75;;;4.22;79.88
75891;BME280;64571;47.512;19.054;2022-12-07T00:41:50;100375.72;;;4.19;80.07
75891;BME280;64571;47.512;19.054;2022-12-07T00:44:52;100381.12;;;4.14;80.41
75891;BME280;64571;47.512;19.054;2022-12-07T00:47:55;100380.28;;;4.13;80.60
75891;BME280;64571;47.512;19.054;2022-12-07T00:50:58;100372.59;;;4.10;80.83
75891;BME280;64571;47.512;19.054;2022-12-07T00:54:01;100379.41;;;4.07;81.10
75891;BME280;64571;47.512;19.054;2022-12-07T00:57:03;100391.19;;;4.03;81.58
75891;BME280;64571;47.512;19.054;2022-12-07T01:00:06;100375.78;;;4.02;81.71
75891;BME280;64571;47.512;19.054;2022-12-07T01:03:11;100349.81;;;3.93;81.66
75891;BME280;64571;47.512;19.054;2022-12-07T01:06:16;100366.22;;;4.10;81.63
75891;BME280;64571;47.512;19.054;2022-12-07T01:09:18;100354.94;;;4.06;81.84
75891;BME280;64571;47.512;19.054;2022-12-07T01:12:21;100359.13;;;4.14;81.79
75891;BME280;64571;47.512;19.054;2022-12-07T01:15:24;100359.37;;;4.12;81.66
75891;BME280;64571;47.512;19.054;2022-12-07T01:18:28;100369.06;;;4.15;81.59
75891;BME280;64571;47.512;19.054;2022-12-07T01:21:33;100375.13;;;4.17;81.75
75891;BME280;64571;47.512;19.054;2022-12-07T01:24:40;100361.63;;;4.15;81.74
75891;BME280;64571;47.512;19.054;2022-12-07T01:27:42;100364.72;;;4.19;81.81
75891;BME280;64571;47.512;19.054;2022-12-07T01:30:45;100367.19;;;4.20;81.78
75891;BME280;64571;47.512;19.054;2022-12-07T01:33:49;100364.44;;;4.20;81.32
75891;BME280;64571;47.512;19.054;2022-12-07T01:36:52;100358.34;;;4.18;81.19
75891;BME280;64571;47.512;19.054;2022-12-07T01:39:54;100358.63;;;4.17;81.06
75891;BME280;64571;47.512;19.054;2022-12-07T01:42:57;100363.03;;;4.18;80.80
75891;BME280;64571;47.512;19.054;2022-12-07T01:46:00;100363.41;;;4.26;80.82
75891;BME280;64571;47.512;19.054;2022-12-07T01:49:06;100347.28;;;4.13;80.86
75891;BME280;64571;47.512;19.054;2022-12-07T01:52:14;100350.44;;;4.22;81.05
75891;BME280;64571;47.512;19.054;2022-12-07T01:55:18;100351.56;;;4.26;80.57
75891;BME280;64571;47.512;19.054;2022-12-07T01:58:21;100356.91;;;4.32;80.79
75891;BME280;64571;47.512;19.054;2022-12-07T02:01:23;100349.19;;;4.35;80.39
75891;BME280;64571;47.512;19.054;2022-12-07T02:04:26;100326.88;;;4.31;80.10
75891;BME280;64571;47.512;19.054;2022-12-07T02:07:29;100345.53;;;4.51;79.50
75891;BME280;64571;47.512;19.054;2022-12-07T02:10:33;100337.66;;;4.60;79.47
75891;BME280;64571;47.512;19.054;2022-12-07T02:13:38;100343.44;;;4.63;78.93
75891;BME280;64571;47.512;19.054;2022-12-07T02:36:34;100345.03;;;4.32;80.26
75891;BME280;64571;47.512;19.054;2022-12-07T02:42:48;100351.41;;;4.32;80.58
75891;BME280;64571;47.512;19.054;2022-12-07T02:45:55;100322.41;;;4.25;80.44
75891;BME280;64571;47.512;19.054;2022-12-07T02:48:59;100329.84;;;4.24;80.46
75891;BME280;64571;47.512;19.054;2022-12-07T02:52:02;100332.06;;;4.27;80.63
75891;BME280;64571;47.512;19.054;2022-12-07T02:55:06;100340.44;;;4.38;80.53
75891;BME280;64571;47.512;19.054;2022-12-07T02:58:23;100324.34;;;4.24;80.38
75891;BME280;64571;47.512;19.054;2022-12-07T03:09:19;100333.34;;;4.42;79.99
75891;BME280;64571;47.512;19.054;2022-12-07T03:12:22;100302.94;;;4.31;80.04
75891;BME280;64571;47.512;19.054;2022-12-07T03:15:39;100318.06;;;4.56;80.24
75891;BME280;64571;47.512;19.054;2022-12-07T03:18:51;100299.69;;;4.35;80.16
75891;BME280;64571;47.512;19.054;2022-12-07T03:22:04;100314.34;;;4.45;80.60
75891;BME280;64571;47.512;19.054;2022-12-07T03:25:10;100318.25;;;4.49;80.33
75891;BME280;64571;47.512;19.054;2022-12-07T03:28:16;100311.41;;;4.52;80.56
75891;BME280;64571;47.512;19.054;2022-12-07T03:31:23;100308.41;;;4.53;80.63
75891;BME280;64571;47.512;19.054;2022-12-07T03:34:35;100293.97;;;4.41;80.83
75891;BME280;64571;47.512;19.054;2022-12-07T03:41:07;100327.97;;;4.30;81.97
75891;BME280;64571;47.512;19.054;2022-12-07T03:44:11;100325.59;;;4.39;82.03
75891;BME280;64571;47.512;19.054;2022-12-07T03:47:34;100312.56;;;4.29;81.78
75891;BME280;64571;47.512;19.054;2022-12-07T03:50:45;100336.13;;;4.47;81.61
75891;BME280;64571;47.512;19.054;2022-12-07T03:54:16;100325.50;;;4.55;81.48
75891;BME280;64571;47.512;19.054;2022-12-07T03:57:22;100332.37;;;4.58;81.33
75891;BME280;64571;47.512;19.054;2022-12-07T04:00:26;100342.06;;;4.61;82.73
75891;BME280;64571;47.512;19.054;2022-12-07T04:03:29;100332.44;;;4.36;83.64
75891;BME280;64571;47.512;19.054;2022-12-07T04:06:31;100353.09;;;4.39;83.82
75891;BME280;64571;47.512;19.054;2022-12-07T04:09:34;100345.34;;;4.36;83.97
75891;BME280;64571;47.512;19.054;2022-12-07T04:12:36;100354.47;;;4.41;83.53
75891;BME280;64571;47.512;19.054;2022-12-07T04:15:39;100336.22;;;4.30;83.86
75891;BME280;64571;47.512;19.054;2022-12-07T04:18:41;100348.69;;;4.38;84.14
75891;BME280;64571;47.512;19.054;2022-12-07T04:21:44;100353.03;;;4.34;84.04
75891;BME280;64571;47.512;19.054;2022-12-07T04:24:46;100353.56;;;4.30;84.31
75891;BME280;64571;47.512;19.054;2022-12-07T04:27:49;100350.44;;;4.22;84.51
75891;BME280;64571;47.512;19.054;2022-12-07T04:30:51;100356.63;;;4.34;84.58
75891;BME280;64571;47.512;19.054;2022-12-07T04:33:54;100341.84;;;4.18;84.89
75891;BME280;64571;47.512;19.054;2022-12-07T04:36:56;100354.75;;;4.40;85.23
75891;BME280;64571;47.512;19.054;2022-12-07T04:39:58;100349.72;;;4.31;84.52
75891;BME280;64571;47.512;19.054;2022-12-07T04:43:01;100347.00;;;4.37;84.52
75891;BME280;64571;47.512;19.054;2022-12-07T04:46:04;100338.97;;;4.30;84.57
75891;BME280;64571;47.512;19.054;2022-12-07T04:49:07;100352.66;;;4.47;84.57
75891;BME280;64571;47.512;19.054;2022-12-07T04:52:09;100355.44;;;4.52;84.52
75891;BME280;64571;47.512;19.054;2022-12-07T04:55:12;100351.03;;;4.51;84.95
75891;BME280;64571;47.512;19.054;2022-12-07T04:58:14;100356.00;;;4.54;85.01
75891;BME280;64571;47.512;19.054;2022-12-07T05:01:17;100347.59;;;4.39;84.98
75891;BME280;64571;47.512;19.054;2022-12-07T05:04:20;100360.13;;;4.51;85.50
75891;BME280;64571;47.512;19.054;2022-12-07T05:07:22;100342.37;;;4.37;86.12
75891;BME280;64571;47.512;19.054;2022-12-07T05:10:25;100355.34;;;4.42;86.76
75891;BME280;64571;47.512;19.054;2022-12-07T05:13:27;100350.62;;;4.37;86.95
75891;BME280;64571;47.512;19.054;2022-12-07T05:16:30;100337.31;;;4.29;87.33
75891;BME280;64571;47.512;19.054;2022-12-07T05:19:32;100340.31;;;4.27;87.33
75891;BME280;64571;47.512;19.054;2022-12-07T05:22:35;100342.56;;;4.30;87.03
75891;BME280;64571;47.512;19.054;2022-12-07T05:25:37;100345.03;;;4.32;87.20
75891;BME280;64571;47.512;19.054;2022-12-07T05:28:40;100340.38;;;4.32;86.85
75891;BME280;64571;47.512;19.054;2022-12-07T05:31:44;100336.09;;;4.42;86.66
75891;BME280;64571;47.512;19.054;2022-12-07T05:34:47;100330.00;;;4.40;86.52
75891;BME280;64571;47.512;19.054;2022-12-07T05:37:49;100325.00;;;4.37;86.72
75891;BME280;64571;47.512;19.054;2022-12-07T05:40:52;100322.25;;;4.37;87.02
75891;BME280;64571;47.512;19.054;2022-12-07T05:43:55;100327.50;;;4.38;86.83
75891;BME280;64571;47.512;19.054;2022-12-07T05:46:58;100324.81;;;4.43;86.68
75891;BME280;64571;47.512;19.054;2022-12-07T05:50:00;100330.62;;;4.47;86.39
75891;BME280;64571;47.512;19.054;2022-12-07T05:53:03;100320.22;;;4.54;85.80
75891;BME280;64571;47.512;19.054;2022-12-07T05:56:06;100325.22;;;4.57;85.17
75891;BME280;64571;47.512;19.054;2022-12-07T05:59:09;100329.59;;;4.53;85.90
75891;BME280;64571;47.512;19.054;2022-12-07T06:02:26;100312.94;;;4.38;85.84
75891;BME280;64571;47.512;19.054;2022-12-07T06:05:30;100329.06;;;4.56;85.81
75891;BME280;64571;47.512;19.054;2022-12-07T06:08:32;100310.91;;;4.55;85.90
75891;BME280;64571;47.512;19.054;2022-12-07T06:11:34;100328.09;;;4.72;85.94
75891;BME280;64571;47.512;19.054;2022-12-07T06:14:55;100332.47;;;4.68;85.33
75891;BME280;64571;47.512;19.054;2022-12-07T06:17:58;100329.44;;;4.65;84.96
75891;BME280;64571;47.512;19.054;2022-12-07T06:21:00;100325.50;;;4.55;85.04
75891;BME280;64571;47.512;19.054;2022-12-07T06:24:03;100322.41;;;4.52;85.32
75891;BME280;64571;47.512;19.054;2022-12-07T06:27:06;100330.00;;;4.67;85.72
75891;BME280;64571;47.512;19.054;2022-12-07T06:30:08;100332.53;;;4.73;85.57
75891;BME280;64571;47.512;19.054;2022-12-07T06:33:11;100318.87;;;4.56;85.33
75891;BME280;64571;47.512;19.054;2022-12-07T06:36:14;100337.78;;;4.75;85.23
75891;BME280;64571;47.512;19.054;2022-12-07T06:39:19;100316.47;;;4.60;85.45
75891;BME280;64571;47.512;19.054;2022-12-07T06:42:22;100336.00;;;4.64;85.65
75891;BME280;64571;47.512;19.054;2022-12-07T06:45:25;100341.28;;;4.65;86.12
75891;BME280;64571;47.512;19.054;2022-12-07T06:48:27;100351.12;;;4.61;86.03
75891;BME280;64571;47.512;19.054;2022-12-07T06:51:34;100343.16;;;4.60;86.14
75891;BME280;64571;47.512;19.054;2022-12-07T06:54:38;100348.44;;;4.66;86.10
75891;BME280;64571;47.512;19.054;2022-12-07T06:57:40;100350.91;;;4.68;85.95
75891;BME280;64571;47.512;19.054;2022-12-07T07:00:44;100357.91;;;4.80;85.86
75891;BME280;64571;47.512;19.054;2022-12-07T07:03:47;100356.25;;;4.79;85.87
75891;BME280;64571;47.512;19.054;2022-12-07T07:06:49;100341.66;;;4.79;85.67
75891;BME280;64571;47.512;19.054;2022-12-07T07:09:59;100338.09;;;4.78;85.37
75891;BME280;64571;47.512;19.054;2022-12-07T07:13:02;100358.31;;;4.94;84.84
75891;BME280;64571;47.512;19.054;2022-12-07T07:16:06;100336.53;;;4.88;85.11
75891;BME280;64571;47.512;19.054;2022-12-07T07:19:09;100357.28;;;5.00;85.02
75891;BME280;64571;47.512;19.054;2022-12-07T07:22:11;100359.81;;;5.07;84.71
75891;BME280;64571;47.512;19.054;2022-12-07T07:25:14;100354.78;;;4.99;85.08
75891;BME280;64571;47.512;19.054;2022-12-07T07:28:16;100355.06;;;4.97;85.10
75891;BME280;64571;47.512;19.054;2022-12-07T07:31:19;100337.91;;;4.90;85.15
75891;BME280;64571;47.512;19.054;2022-12-07T07:34:22;100359.25;;;5.05;85.25
75891;BME280;64571;47.512;19.054;2022-12-07T07:37:24;100337.75;;;5.02;84.92
75891;BME280;64571;47.512;19.054;2022-12-07T07:40:28;100357.97;;;5.18;84.88
75891;BME280;64571;47.512;19.054;2022-12-07T07:43:32;100356.75;;;5.03;84.55
75891;BME280;64571;47.512;19.054;2022-12-07T07:46:35;100336.63;;;5.03;84.37
75891;BME280;64571;47.512;19.054;2022-12-07T07:49:37;100345.91;;;5.24;84.38
75891;BME280;64571;47.512;19.054;2022-12-07T07:52:47;100326.31;;;5.20;83.94
75891;BME280;64571;47.512;19.054;2022-12-07T07:55:53;100358.56;;;5.25;82.88
75891;BME280;64571;47.512;19.054;2022-12-07T07:58:56;100353.69;;;5.32;83.00
75891;BME280;64571;47.512;19.054;2022-12-07T08:01:58;100332.16;;;5.29;82.50
75891;BME280;64571;47.512;19.054;2022-12-07T08:05:01;100356.16;;;5.33;81.83
75891;BME280;64571;47.512;19.054;2022-12-07T08:08:04;100340.69;;;5.27;82.49
75891;BME280;64571;47.512;19.054;2022-12-07T08:11:08;100354.81;;;5.36;81.41
75891;BME280;64571;47.512;19.054;2022-12-07T08:14:11;100363.47;;;5.50;81.71
75891;BME280;64571;47.512;19.054;2022-12-07T08:17:13;100356.84;;;5.51;81.04
75891;BME280;64571;47.512;19.054;2022-12-07T08:20:16;100366.75;;;5.52;80.85
75891;BME280;64571;47.512;19.054;2022-12-07T08:23:18;100364.31;;;5.55;80.78
75891;BME280;64571;47.512;19.054;2022-12-07T08:26:24;100372.91;;;5.64;80.98
75891;BME280;64571;47.512;19.054;2022-12-07T08:29:26;100385.06;;;5.68;80.53
75891;BME280;64571;47.512;19.054;2022-12-07T08:32:29;100371.53;;;5.67;80.12
75891;BME280;64571;47.512;19.054;2022-12-07T08:35:33;100365.28;;;5.76;79.35
75891;BME280;64571;47.512;19.054;2022-12-07T08:38:37;100355.28;;;5.70;79.65
75891;BME280;64571;47.512;19.054;2022-12-07T08:41:39;100364.75;;;5.84;79.32
75891;BME280;64571;47.512;19.054;2022-12-07T08:44:42;100377.28;;;6.02;78.76
75891;BME280;64571;47.512;19.054;2022-12-07T08:47:55;100390.03;;;6.08;78.23
75891;BME280;64571;47.512;19.054;2022-12-07T08:51:01;100385.09;;;6.21;78.58
75891;BME280;64571;47.512;19.054;2022-12-07T08:54:07;100379.00;;;6.14;77.74
75891;BME280;64571;47.512;19.054;2022-12-07T08:57:11;100362.63;;;5.97;77.49
75891;BME280;64571;47.512;19.054;2022-12-07T09:00:14;100370.22;;;6.22;77.50
75891;BME280;64571;47.512;19.054;2022-12-07T09:03:16;100376.28;;;6.24;77.13
75891;BME280;64571;47.512;19.054;2022-12-07T09:06:19;100386.00;;;6.42;77.23
75891;BME280;64571;47.512;19.054;2022-12-07T09:09:22;100379.37;;;6.43;76.57
75891;BME280;64571;47.512;19.054;2022-12-07T09:12:25;100387.66;;;6.38;76.57
75891;BME280;64571;47.512;19.054;2022-12-07T09:15:28;100378.31;;;6.54;76.43
75891;BME280;64571;47.512;19.054;2022-12-07T09:18:31;100371.97;;;6.58;76.62
75891;BME280;64571;47.512;19.054;2022-12-07T09:21:33;100378.06;;;6.60;75.77
75891;BME280;64571;47.512;19.054;2022-12-07T09:24:36;100366.72;;;6.57;75.50
75891;BME280;64571;47.512;19.054;2022-12-07T09:27:39;100368.97;;;6.75;74.75
75891;BME280;64571;47.512;19.054;2022-12-07T09:30:48;100364.53;;;6.74;74.37
75891;BME280;64571;47.512;19.054;2022-12-07T09:34:11;100369.25;;;6.74;74.10
75891;BME280;64571;47.512;19.054;2022-12-07T09:37:14;100363.13;;;6.62;74.29
75891;BME280;64571;47.512;19.054;2022-12-07T09:40:18;100364.53;;;6.74;73.78
75891;BME280;64571;47.512;19.054;2022-12-07T09:43:24;100361.25;;;6.82;73.63
75891;BME280;64571;47.512;19.054;2022-12-07T09:46:27;100349.66;;;6.96;73.03
75891;BME280;64571;47.512;19.054;2022-12-07T09:49:31;100352.16;;;7.07;73.10
75891;BME280;64571;47.512;19.054;2022-12-07T09:52:34;100346.63;;;7.13;71.51
75891;BME280;64571;47.512;19.054;2022-12-07T09:55:41;100329.75;;;6.89;71.28
75891;BME280;64571;47.512;19.054;2022-12-07T09:58:45;100341.38;;;6.80;71.99
75891;BME280;64571;47.512;19.054;2022-12-07T10:01:50;100328.37;;;6.81;71.79
75891;BME280;64571;47.512;19.054;2022-12-07T10:04:53;100318.16;;;6.92;71.94
75891;BME280;64571;47.512;19.054;2022-12-07T10:07:56;100332.53;;;6.99;70.91
75891;BME280;64571;47.512;19.054;2022-12-07T10:11:01;100338.63;;;6.96;71.34
75891;BME280;64571;47.512;19.054;2022-12-07T10:14:13;100339.72;;;7.00;71.42
75891;BME280;64571;47.512;19.054;2022-12-07T10:17:49;100333.38;;;7.04;70.98
75891;BME280;64571;47.512;19.054;2022-12-07T10:21:12;100330.31;;;7.01;70.35
75891;BME280;64571;47.512;19.054;2022-12-07T10:24:15;100327.81;;;7.25;71.04
75891;BME280;64571;47.512;19.054;2022-12-07T10:27:21;100329.22;;;7.12;70.16
75891;BME280;64571;47.512;19.054;2022-12-07T10:30:24;100328.66;;;7.05;70.29
75891;BME280;64571;47.512;19.054;2022-12-07T10:43:29;100309.88;;;7.02;68.73
75891;BME280;64571;47.512;19.054;2022-12-07T10:57:31;100312.34;;;7.19;67.72
75891;BME280;64571;47.512;19.054;2022-12-07T11:00:52;100303.50;;;7.06;68.44
75891;BME280;64571;47.512;19.054;2022-12-07T11:07:18;100309.59;;;6.93;68.49
75891;BME280;64571;47.512;19.054;2022-12-07T11:14:13;100307.97;;;7.07;68.45
75891;BME280;64571;47.512;19.054;2022-12-07T11:17:45;100282.53;;;7.00;68.79
75891;BME280;64571;47.512;19.054;2022-12-07T11:21:09;100279.47;;;7.17;69.49
75891;BME280;64571;47.512;19.054;2022-12-07T11:24:16;100295.50;;;7.25;68.42
75891;BME280;64571;47.512;19.054;2022-12-07T11:27:24;100300.19;;;7.35;68.71
75891;BME280;64571;47.512;19.054;2022-12-07T11:30:41;100294.66;;;7.25;68.26
75891;BME280;64571;47.512;19.054;2022-12-07T11:34:00;100296.03;;;7.27;69.08
75891;BME280;64571;47.512;19.054;2022-12-07T11:37:13;100296.03;;;7.32;69.14
75891;BME280;64571;47.512;19.054;2022-12-07T11:43:26;100293.28;;;7.22;69.00
75891;BME280;64571;47.512;19.054;2022-12-07T11:49:53;100295.50;;;7.10;69.27
75891;BME280;64571;47.512;19.054;2022-12-07T11:56:15;100304.38;;;7.07;69.13
75891;BME280;64571;47.512;19.054;2022-12-07T11:59:30;100313.19;;;7.04;69.48
75891;BME280;64571;47.512;19.054;2022-12-07T12:02:57;100286.12;;;6.96;69.69
75891;BME280;64571;47.512;19.054;2022-12-07T12:06:01;100292.47;;;7.12;69.62
75891;BME280;64571;47.512;19.054;2022-12-07T12:09:06;100285.03;;;6.87;70.01
75891;BME280;64571;47.512;19.054;2022-12-07T12:12:40;100284.19;;;7.17;69.64
75891;BME280;64571;47.512;19.054;2022-12-07T12:26:50;100258.47;;;7.16;69.09
75891;BME280;64571;47.512;19.054;2022-12-07T12:29:56;100237.50;;;6.95;69.35
75891;BME280;64571;47.512;19.054;2022-12-07T12:33:13;100254.88;;;7.16;69.10
75891;BME280;64571;47.512;19.054;2022-12-07T12:39:37;100246.28;;;7.27;67.95
75891;BME280;64571;47.512;19.054;2022-12-07T12:42:47;100220.88;;;7.15;68.06
75891;BME280;64571;47.512;19.054;2022-12-07T12:49:35;100245.75;;;7.10;67.90
75891;BME280;64571;47.512;19.054;2022-12-07T12:55:54;100242.41;;;7.28;66.21
75891;BME280;64571;47.512;19.054;2022-12-07T12:59:29;100247.34;;;7.42;66.54
75891;BME280;64571;47.512;19.054;2022-12-07T13:02:49;100246.00;;;7.39;66.18
75891;BME280;64571;47.512;19.054;2022-12-07T13:09:29;100261.75;;;7.28;66.26
75891;BME280;64571;47.512;19.054;2022-12-07T13:12:33;100260.06;;;7.43;66.66
75891;BME280;64571;47.512;19.054;2022-12-07T13:18:42;100251.22;;;7.46;66.65
75891;BME280;64571;47.512;19.054;2022-12-07T13:21:44;100257.06;;;7.34;66.29
75891;BME280;64571;47.512;19.054;2022-12-07T13:24:47;100251.81;;;7.27;65.98
75891;BME280;64571;47.512;19.054;2022-12-07T13:28:01;100263.97;;;7.26;66.51
75891;BME280;64571;47.512;19.054;2022-12-07T13:34:44;100264.03;;;6.96;65.35
75891;BME280;64571;47.512;19.054;2022-12-07T13:37:48;100264.84;;;6.91;65.71
75891;BME280;64571;47.512;19.054;2022-12-07T13:41:29;100270.94;;;6.83;65.92
75891;BME280;64571;47.512;19.054;2022-12-07T13:44:34;100262.91;;;6.87;66.24
75891;BME280;64571;47.512;19.054;2022-12-07T13:47:48;100251.31;;;6.74;66.62
75891;BME280;64571;47.512;19.054;2022-12-07T13:50:56;100273.69;;;6.88;67.49
75891;BME280;64571;47.512;19.054;2022-12-07T13:54:10;100272.56;;;6.84;67.00
75891;BME280;64571;47.512;19.054;2022-12-07T13:57:13;100283.38;;;6.80;67.47
75891;BME280;64571;47.512;19.054;2022-12-07T14:03:34;100288.88;;;6.85;67.73
75891;BME280;64571;47.512;19.054;2022-12-07T14:06:47;100288.59;;;6.82;67.69
75891;BME280;64571;47.512;19.054;2022-12-07T14:09:55;100274.81;;;6.72;68.19
75891;BME280;64571;47.512;19.054;2022-12-07T14:12:59;100268.19;;;6.68;68.49
75891;BME280;64571;47.512;19.054;2022-12-07T14:16:23;100280.03;;;6.63;68.58
75891;BME280;64571;47.512;19.054;2022-12-07T14:19:47;100273.94;;;6.51;69.06
75891;BME280;64571;47.512;19.054;2022-12-07T14:22:55;100281.66;;;6.44;69.65
75891;BME280;64571;47.512;19.054;2022-12-07T14:26:19;100279.75;;;6.49;70.18
75891;BME280;64571;47.512;19.054;2022-12-07T14:32:29;100277.00;;;6.54;70.42
75891;BME280;64571;47.512;19.054;2022-12-07T14:35:32;100270.63;;;6.44;70.33
75891;BME280;64571;47.512;19.054;2022-12-07T14:38:35;100263.72;;;6.41;70.98
75891;BME280;64571;47.512;19.054;2022-12-07T14:41:37;100287.19;;;6.44;70.45
75891;BME280;64571;47.512;19.054;2022-12-07T14:44:52;100284.41;;;6.44;70.97
75891;BME280;64571;47.512;19.054;2022-12-07T14:47:55;100288.84;;;6.45;71.84
75891;BME280;64571;47.512;19.054;2022-12-07T14:51:17;100295.75;;;6.37;71.55
75891;BME280;64571;47.512;19.054;2022-12-07T14:54:41;100296.25;;;6.29;71.43
75891;BME280;64571;47.512;19.054;2022-12-07T14:57:43;100298.72;;;6.20;71.37
75891;BME280;64571;47.512;19.054;2022-12-07T15:00:46;100300.94;;;6.23;71.96
75891;BME280;64571;47.512;19.054;2022-12-07T15:03:49;100302.88;;;6.18;71.86
75891;BME280;64571;47.512;19.054;2022-12-07T15:07:03;100302.84;;;6.13;71.73
75891;BME280;64571;47.512;19.054;2022-12-07T15:10:25;100284.59;;;6.01;72.04
75891;BME280;64571;47.512;19.054;2022-12-07T15:13:32;100286.81;;;5.99;72.17
75891;BME280;64571;47.512;19.054;2022-12-07T15:16:53;100311.09;;;6.07;72.40
75891;BME280;64571;47.512;19.054;2022-12-07T15:20:13;100308.31;;;6.02;71.87
75891;BME280;64571;47.512;19.054;2022-12-07T15:23:15;100306.38;;;5.98;72.38
75891;BME280;64571;47.512;19.054;2022-12-07T15:26:18;100314.94;;;5.96;72.32
75891;BME280;64571;47.512;19.054;2022-12-07T15:29:21;100313.84;;;6.02;72.21
75891;BME280;64571;47.512;19.054;2022-12-07T15:32:25;100301.09;;;5.91;72.54
75891;BME280;64571;47.512;19.054;2022-12-07T15:35:27;100303.59;;;5.93;72.08
75891;BME280;64571;47.512;19.054;2022-12-07T15:38:30;100320.75;;;6.00;72.52
75891;BME280;64571;47.512;19.054;2022-12-07T15:41:52;100321.28;;;5.97;72.96
75891;BME280;64571;47.512;19.054;2022-12-07T15:44:55;100309.88;;;5.88;72.60
75891;BME280;64571;47.512;19.054;2022-12-07T15:48:07;100324.78;;;5.87;71.92
75891;BME280;64571;47.512;19.054;2022-12-07T15:51:30;100336.91;;;5.86;71.83
75891;BME280;64571;47.512;19.054;2022-12-07T15:54:32;100336.91;;;5.86;71.93
75891;BME280;64571;47.512;19.054;2022-12-07T15:57:36;100320.59;;;5.79;71.89
75891;BME280;64571;47.512;19.054;2022-12-07T16:00:39;100340.22;;;5.88;71.09
75891;BME280;64571;47.512;19.054;2022-12-07T16:03:42;100335.28;;;5.90;70.98
75891;BME280;64571;47.512;19.054;2022-12-07T16:06:44;100337.19;;;5.90;70.96
75891;BME280;64571;47.512;19.054;2022-12-07T16:09:47;100337.16;;;5.79;70.71
75891;BME280;64571;47.512;19.054;2022-12-07T16:12:51;100334.94;;;5.76;70.81
75891;BME280;64571;47.512;19.054;2022-12-07T16:15:54;100315.22;;;5.52;70.51
75891;BME280;64571;47.512;19.054;2022-12-07T16:18:57;100332.56;;;5.48;70.34
75891;BME280;64571;47.512;19.054;2022-12-07T16:21:59;100308.50;;;5.33;70.54
75891;BME280;64571;47.512;19.054;2022-12-07T16:25:02;100329.75;;;5.38;70.75
75891;BME280;64571;47.512;19.054;2022-12-07T16:28:06;100339.66;;;5.39;70.70
75891;BME280;64571;47.512;19.054;2022-12-07T16:31:20;100333.28;;;5.33;70.77
75891;BME280;64571;47.512;19.054;2022-12-07T16:34:23;100334.09;;;5.28;70.84
75891;BME280;64571;47.512;19.054;2022-12-07T16:37:25;100335.19;;;5.27;71.18
75891;BME280;64571;47.512;19.054;2022-12-07T16:40:28;100328.00;;;5.26;71.01
75891;BME280;64571;47.512;19.054;2022-12-07T16:43:30;100342.31;;;5.23;71.18
75891;BME280;64571;47.512;19.054;2022-12-07T16:46:34;100337.34;;;5.20;71.34
75891;BME280;64571;47.512;19.054;2022-12-07T16:49:37;100341.19;;;5.19;71.34
75891;BME280;64571;47.512;19.054;2022-12-07T16:52:40;100331.13;;;5.03;71.41
75891;BME280;64571;47.512;19.054;2022-12-07T16:55:44;100337.59;;;5.19;72.17
75891;BME280;64571;47.512;19.054;2022-12-07T16:58:47;100327.91;;;5.11;71.75
75891;BME280;64571;47.512;19.054;2022-12-07T17:01:51;100349.97;;;5.16;72.12
75891;BME280;64571;47.512;19.054;2022-12-07T17:04:54;100361.59;;;5.23;72.75
75891;BME280;64571;47.512;19.054;2022-12-07T17:07:56;100350.59;;;5.23;73.18
75891;BME280;64571;47.512;19.054;2022-12-07T17:10:59;100350.00;;;5.21;72.90
75891;BME280;64571;47.512;19.054;2022-12-07T17:14:01;100327.25;;;4.99;73.07
75891;BME280;64571;47.512;19.054;2022-12-07T17:17:22;100355.37;;;5.01;73.51
75891;BME280;64571;47.512;19.054;2022-12-07T17:20:26;100356.97;;;4.97;73.44
75891;BME280;64571;47.512;19.054;2022-12-07T17:23:29;100362.72;;;4.95;73.51
75891;BME280;64571;47.512;19.054;2022-12-07T17:26:32;100360.84;;;4.96;73.69
75891;BME280;64571;47.512;19.054;2022-12-07T17:29:37;100355.31;;;4.96;73.78
75891;BME280;64571;47.512;19.054;2022-12-07T17:32:40;100339.28;;;4.88;73.86
75891;BME280;64571;47.512;19.054;2022-12-07T17:35:42;100348.69;;;4.92;74.00
75891;BME280;64571;47.512;19.054;2022-12-07T17:38:45;100335.34;;;4.78;74.10
75891;BME280;64571;47.512;19.054;2022-12-07T17:41:47;100356.09;;;4.91;73.86
75891;BME280;64571;47.512;19.054;2022-12-07T17:45:09;100344.16;;;4.80;73.55
75891;BME280;64571;47.512;19.054;2022-12-07T17:48:12;100343.59;;;4.78;72.96
75891;BME280;64571;47.512;19.054;2022-12-07T17:51:14;100369.28;;;4.89;72.47
75891;BME280;64571;47.512;19.054;2022-12-07T17:54:36;100368.41;;;4.83;72.59
75891;BME280;64571;47.512;19.054;2022-12-07T17:57:38;100371.44;;;4.82;71.91
75891;BME280;64571;47.512;19.054;2022-12-07T18:00:41;100378.03;;;4.81;73.16
75891;BME280;64571;47.512;19.054;2022-12-07T18:03:44;100367.78;;;4.76;72.58